Rainier, WA (98576)

7:53 PM PDT on July 26, 2016 (GMT -0700)
APRSWXNET | | Change Station

Elev 399 ft 46.92 °N, 122.64 °W | Updated 37 minutes ago

Clear
Clear
77 °F
Feels Like 79 °F
N
0
Wind Variable Wind from NE
Gusts 0.0 mph

Today
High -- | Low -- °F
--% Chance of Precip.
Yesterday
High -- | Low -- °F
Precip. -- in
Pressure 30.07 in
Visibility 10.0 miles
Clouds Clear
Heat Index 79 °F
Dew Point 60 °F
Humidity 55%
Rainfall in
Snow Depth Not available.
5:44 AM 8:49 PM
Waning Gibbous, 48% visible
METAR KOLM 270154Z 01008KT 10SM CLR 27/14 A3008 RMK AO2 SLP183 T02670144
Pressure 30.07 in
Visibility 10.0 miles
Clouds Clear
Heat Index 79 °F
Dew Point 60 °F
Humidity 55%
Rainfall in
Snow Depth Not available.
5:44 AM 8:49 PM
Waning Gibbous, 48% visible
METAR KOLM 270154Z 01008KT 10SM CLR 27/14 A3008 RMK AO2 SLP183 T02670144

10-Day Weather Forecast

Almanac

Astronomy

Jul. 26, 2016 Rise Set
Actual Time
Civil Twilight
Nautical Twilight
Astronomical Twilight
Moon
Length of Visible Light
Length of Day
Tomorrow will be .
, % of the Moon is Illuminated

Today's Extremes

State Highs State Lows

Community

WunderPhotos

Upload Photos

1,927,784 photos uploaded!

WunderBlog® & News

Nearby

Air Quality

  Air Quality AQ Index Pollutant
Not available.

Snow Depth

Station Depth Elevation

Earthquake Activity

City Distance Mag. Time & Date
Minimum magnitude displayed is 2.5.

Coastal Water Temperatures

Place Temperature

Stations

Nearby Weather Stations

Station Location Temp. Windchill Dew Point Humidity Wind Precip. Elev Updated Type
                   

Watches & Warnings

There are currently no watches in effect.